createdAt,value
2017-08-14T00:01:51.247Z,5.80
2017-08-14T00:04:18.759Z,5.20
2017-08-14T00:06:47.048Z,5.20
2017-08-14T00:09:14.543Z,5.33
2017-08-14T00:11:42.068Z,5.40
2017-08-14T00:14:09.562Z,5.57
2017-08-14T00:16:37.066Z,5.53
2017-08-14T00:19:04.592Z,5.33
2017-08-14T00:21:32.096Z,5.97
2017-08-14T00:23:59.614Z,5.40
2017-08-14T00:26:27.119Z,5.00
2017-08-14T00:28:54.631Z,4.93
2017-08-14T00:31:22.126Z,5.67
2017-08-14T00:33:50.405Z,5.50
2017-08-14T00:36:17.906Z,5.57
2017-08-14T00:38:45.419Z,5.00
2017-08-14T00:41:12.922Z,5.83
2017-08-14T00:43:40.428Z,4.70
2017-08-14T00:46:07.950Z,5.47
2017-08-14T00:48:35.446Z,5.80
2017-08-14T00:51:02.959Z,6.87
2017-08-14T00:53:30.464Z,6.87
2017-08-14T00:58:32.003Z,6.27
2017-08-14T01:00:59.532Z,6.77
2017-08-14T01:03:27.028Z,6.03
2017-08-14T01:05:54.574Z,6.13
2017-08-14T01:08:22.075Z,6.10
2017-08-14T01:10:49.570Z,5.53
2017-08-14T01:13:17.091Z,5.80
2017-08-14T01:15:44.591Z,6.37
2017-08-14T01:18:12.110Z,5.60
2017-08-14T01:20:39.606Z,5.10
2017-08-14T01:23:07.106Z,5.40
2017-08-14T01:25:34.635Z,5.63
2017-08-14T01:28:02.134Z,5.10
2017-08-14T01:30:29.651Z,5.10
2017-08-14T01:32:57.156Z,5.97
2017-08-14T01:35:24.660Z,6.63
2017-08-14T01:37:52.175Z,6.37
2017-08-14T01:40:19.679Z,8.33
2017-08-14T01:42:47.202Z,8.10
2017-08-14T01:45:14.720Z,8.80
2017-08-14T01:47:42.982Z,8.47
2017-08-14T01:50:10.507Z,8.60
2017-08-14T01:52:38.022Z,10.30
2017-08-14T01:55:06.319Z,10.40
2017-08-14T01:57:33.826Z,10.30
2017-08-14T02:00:01.327Z,10.40
2017-08-14T02:02:28.847Z,9.90
2017-08-14T02:04:56.354Z,10.83
2017-08-14T02:07:23.883Z,8.70
2017-08-14T02:09:52.154Z,12.20
2017-08-14T02:12:19.658Z,10.20
2017-08-14T02:14:48.023Z,10.97
2017-08-14T02:17:15.523Z,9.27
2017-08-14T02:19:43.060Z,9.00
2017-08-14T02:22:10.570Z,9.57
2017-08-14T02:24:38.846Z,11.03
2017-08-14T02:27:07.132Z,9.30
2017-08-14T02:29:34.644Z,8.73
2017-08-14T02:32:02.179Z,9.50
2017-08-14T02:34:29.691Z,8.87
2017-08-14T02:36:57.973Z,8.60
2017-08-14T02:39:26.278Z,9.47
2017-08-14T02:41:53.792Z,9.20
2017-08-14T02:44:21.322Z,12.90
2017-08-14T02:46:48.838Z,9.93
2017-08-14T02:49:16.335Z,8.43
2017-08-14T02:51:43.863Z,10.10
2017-08-14T02:54:11.366Z,8.60
2017-08-14T02:56:38.887Z,8.97
2017-08-14T02:59:06.401Z,10.03
2017-08-14T03:01:33.898Z,10.30
2017-08-14T03:04:01.419Z,11.13
2017-08-14T03:06:28.928Z,11.17
2017-08-14T03:08:56.458Z,11.97
2017-08-14T03:11:24.737Z,11.20
2017-08-14T03:13:52.240Z,9.30
2017-08-14T03:16:19.764Z,10.50
2017-08-14T03:18:47.279Z,10.77
2017-08-14T03:21:14.805Z,11.90
2017-08-14T03:23:42.302Z,11.97
2017-08-14T03:26:09.821Z,9.47
2017-08-14T03:28:37.318Z,9.77
2017-08-14T03:31:04.846Z,9.03
2017-08-14T03:33:32.371Z,9.87
2017-08-14T03:35:59.879Z,11.07
2017-08-14T03:38:27.419Z,11.80
2017-08-14T03:40:54.931Z,10.20
2017-08-14T03:43:23.198Z,9.40
2017-08-14T03:45:51.482Z,10.63
2017-08-14T03:48:19.754Z,10.90
2017-08-14T03:50:48.139Z,10.77
2017-08-14T03:53:15.648Z,10.60
2017-08-14T03:55:43.152Z,10.80
2017-08-14T03:58:10.678Z,10.37
2017-08-14T04:00:38.179Z,9.87
2017-08-14T04:03:05.723Z,8.90
2017-08-14T04:05:33.993Z,9.33
2017-08-14T04:08:01.504Z,10.07
2017-08-14T04:10:29.018Z,8.97
2017-08-14T04:12:57.287Z,8.77
2017-08-14T04:15:25.600Z,8.80
2017-08-14T04:17:53.107Z,8.43
2017-08-14T04:20:20.603Z,9.33
2017-08-14T04:22:48.127Z,9.60
2017-08-14T04:25:15.630Z,9.30
2017-08-14T04:27:43.151Z,9.70
2017-08-14T04:30:10.660Z,10.03
2017-08-14T04:32:38.188Z,9.03
2017-08-14T04:35:05.686Z,9.00
2017-08-14T04:37:33.182Z,9.10
2017-08-14T04:40:00.711Z,9.23
2017-08-14T04:42:28.206Z,8.47
2017-08-14T04:44:55.759Z,9.13
2017-08-14T04:47:24.258Z,9.43
2017-08-14T04:49:52.522Z,9.43
2017-08-14T04:52:20.841Z,8.93
2017-08-14T04:54:48.335Z,9.10
2017-08-14T04:57:15.879Z,9.20
2017-08-14T04:59:43.377Z,10.07
2017-08-14T05:02:11.642Z,9.30
2017-08-14T05:04:39.935Z,8.60
2017-08-14T05:07:07.438Z,9.50
2017-08-14T05:09:34.971Z,8.80
2017-08-14T05:12:02.475Z,8.70
2017-08-14T05:14:29.971Z,9.17
2017-08-14T05:16:57.491Z,8.10
2017-08-14T05:19:24.986Z,8.60
2017-08-14T05:21:52.531Z,8.80
2017-08-14T05:24:20.811Z,9.30
2017-08-14T05:26:49.083Z,8.93
2017-08-14T05:29:17.367Z,9.33
2017-08-14T05:31:45.638Z,8.37
2017-08-14T05:34:13.922Z,7.90
2017-08-14T05:36:42.195Z,8.60
2017-08-14T05:39:09.699Z,7.77
2017-08-14T05:41:37.215Z,7.50
2017-08-14T05:44:04.724Z,7.60
2017-08-14T05:46:32.266Z,7.87
2017-08-14T05:48:59.763Z,7.30
2017-08-14T05:51:27.257Z,7.30
2017-08-14T05:53:54.768Z,6.60
2017-08-14T05:56:22.273Z,6.83
2017-08-14T05:58:49.799Z,6.50
2017-08-14T06:01:17.304Z,6.67
2017-08-14T06:03:45.120Z,6.07
2017-08-14T06:06:12.623Z,6.50
2017-08-14T06:08:40.123Z,6.40
2017-08-14T06:11:07.635Z,6.53
2017-08-14T06:13:35.131Z,5.50
2017-08-14T06:16:02.650Z,5.20
2017-08-14T06:18:30.155Z,5.70
2017-08-14T06:20:57.657Z,5.17
2017-08-14T06:23:25.208Z,5.10
2017-08-14T06:25:52.702Z,4.73
2017-08-14T06:28:20.214Z,4.27
2017-08-14T06:30:47.715Z,4.17
2017-08-14T06:33:15.238Z,4.23
2017-08-14T06:35:42.735Z,4.30
2017-08-14T06:38:10.239Z,4.07
2017-08-14T06:40:37.753Z,3.67
2017-08-14T06:43:05.257Z,3.63
2017-08-14T06:45:32.779Z,3.70
2017-08-14T06:48:00.396Z,4.10
2017-08-14T06:50:27.942Z,3.60
2017-08-14T06:52:55.455Z,3.73
2017-08-14T06:55:22.955Z,3.40
2017-08-14T06:57:50.482Z,3.47
2017-08-14T07:00:17.983Z,3.30
2017-08-14T07:02:46.266Z,3.40
2017-08-14T07:05:13.762Z,4.33
2017-08-14T07:07:41.283Z,3.30
2017-08-14T07:10:08.786Z,3.27
2017-08-14T07:12:36.293Z,3.70
2017-08-14T07:15:03.815Z,3.20
2017-08-14T07:17:31.310Z,3.37
2017-08-14T07:19:59.588Z,3.20
2017-08-14T07:22:27.091Z,3.13
2017-08-14T07:24:54.629Z,3.20
2017-08-14T07:27:22.130Z,3.30
2017-08-14T07:29:49.635Z,3.40
2017-08-14T07:32:17.151Z,3.10
2017-08-14T07:34:44.659Z,2.60
2017-08-14T07:37:12.175Z,2.90
2017-08-14T07:39:39.674Z,3.00
2017-08-14T07:42:07.216Z,2.50
2017-08-14T07:44:34.720Z,2.40
2017-08-14T07:47:02.212Z,2.60
2017-08-14T07:49:29.743Z,3.10
2017-08-14T07:51:57.250Z,2.60
2017-08-14T07:54:24.762Z,2.40
2017-08-14T07:56:52.262Z,2.60
2017-08-14T07:59:19.808Z,2.73
2017-08-14T08:01:48.074Z,2.70
2017-08-14T08:04:15.579Z,2.30
2017-08-14T08:06:43.102Z,2.53
2017-08-14T08:09:11.371Z,2.23
2017-08-14T08:11:39.650Z,2.37
2017-08-14T08:14:07.910Z,2.53
2017-08-14T08:16:35.431Z,2.50
2017-08-14T08:19:02.931Z,2.40
2017-08-14T08:21:30.432Z,2.33
2017-08-14T08:23:57.959Z,2.27
2017-08-14T08:26:26.227Z,2.20
2017-08-14T08:28:53.747Z,2.27
2017-08-14T08:31:21.248Z,2.13
2017-08-14T08:33:48.804Z,1.80
2017-08-14T08:36:17.070Z,2.30
2017-08-14T08:38:44.576Z,2.50
2017-08-14T08:41:12.099Z,1.60
2017-08-14T08:43:40.371Z,1.90
2017-08-14T08:46:08.654Z,1.53
2017-08-14T08:48:36.921Z,1.83
2017-08-14T08:51:04.443Z,1.47
2017-08-14T08:53:31.950Z,1.70
2017-08-14T08:56:00.271Z,1.40
2017-08-14T08:58:27.775Z,1.97
2017-08-14T09:00:56.051Z,1.87
2017-08-14T09:03:23.566Z,1.80
2017-08-14T09:05:51.067Z,1.90
2017-08-14T09:08:19.359Z,1.87
2017-08-14T09:10:46.879Z,1.80
2017-08-14T09:13:14.414Z,1.80
2017-08-14T09:15:41.919Z,1.97
2017-08-14T09:18:10.187Z,1.70
2017-08-14T09:20:37.708Z,1.60
2017-08-14T09:23:05.206Z,2.00
2017-08-14T09:25:33.503Z,1.50
2017-08-14T09:28:01.007Z,1.40
2017-08-14T09:30:28.552Z,1.80
2017-08-14T09:32:56.059Z,1.80
2017-08-14T09:35:24.340Z,1.57
2017-08-14T09:37:51.870Z,1.70
2017-08-14T09:40:19.367Z,1.50
2017-08-14T09:42:46.890Z,2.07
2017-08-14T09:45:14.391Z,2.10
2017-08-14T09:47:41.918Z,1.90
2017-08-14T09:50:09.428Z,1.80
2017-08-14T09:52:36.958Z,2.10
2017-08-14T09:55:05.235Z,2.07
2017-08-14T09:57:32.745Z,2.00
2017-08-14T10:00:00.259Z,1.80
2017-08-14T10:02:27.755Z,2.13
2017-08-14T10:04:55.299Z,1.70
2017-08-14T10:07:22.813Z,2.03
2017-08-14T10:09:50.367Z,2.07
2017-08-14T10:12:18.646Z,2.40
2017-08-14T10:14:46.147Z,2.30
2017-08-14T10:17:13.666Z,1.80
2017-08-14T10:19:42.339Z,2.27
2017-08-14T10:22:09.855Z,1.90
2017-08-14T10:24:37.359Z,2.37
2017-08-14T10:27:04.903Z,2.10
2017-08-14T10:29:32.406Z,2.17
2017-08-14T10:31:59.909Z,2.10
2017-08-14T10:34:27.436Z,1.80
2017-08-14T10:36:54.942Z,1.80
2017-08-14T10:39:22.458Z,1.90
2017-08-14T10:41:49.958Z,1.60
2017-08-14T10:44:17.492Z,1.80
2017-08-14T10:46:45.011Z,1.53
2017-08-14T10:49:12.539Z,1.53
2017-08-14T10:51:40.060Z,2.00
2017-08-14T10:54:07.564Z,1.80
2017-08-14T10:56:35.859Z,1.40
2017-08-14T10:59:04.119Z,1.70
2017-08-14T11:01:32.404Z,1.50
2017-08-14T11:04:00.671Z,1.87
2017-08-14T11:06:28.936Z,1.70
2017-08-14T11:08:56.458Z,2.00
2017-08-14T11:11:23.963Z,1.70
2017-08-14T11:13:52.242Z,2.33
2017-08-14T11:16:20.511Z,1.77
2017-08-14T11:18:48.790Z,1.67
2017-08-14T11:21:17.058Z,2.00
2017-08-14T11:23:44.583Z,1.60
2017-08-14T11:26:12.090Z,1.50
2017-08-14T11:28:40.365Z,1.67
2017-08-14T11:31:07.896Z,1.70
2017-08-14T11:33:35.405Z,1.73
2017-08-14T11:36:02.922Z,1.60
2017-08-14T11:38:30.428Z,1.67
2017-08-14T11:40:57.958Z,2.10
2017-08-14T11:43:26.219Z,1.50
2017-08-14T11:45:54.500Z,1.80
2017-08-14T11:48:22.798Z,1.70
2017-08-14T11:50:50.296Z,1.87
2017-08-14T11:53:17.829Z,2.00
2017-08-14T11:55:45.335Z,1.63
2017-08-14T11:58:12.863Z,1.77
2017-08-14T12:00:40.389Z,1.60
2017-08-14T12:03:07.904Z,2.03
2017-08-14T12:05:35.426Z,2.10
2017-08-14T12:08:02.939Z,1.70
2017-08-14T12:10:31.235Z,1.60
2017-08-14T12:12:59.509Z,1.83
2017-08-14T12:15:27.043Z,1.80
2017-08-14T12:17:54.539Z,1.93
2017-08-14T12:20:22.042Z,1.60
2017-08-14T12:22:49.557Z,2.17
2017-08-14T12:25:17.078Z,1.80
2017-08-14T12:27:44.607Z,2.13
2017-08-14T12:30:12.115Z,2.10
2017-08-14T12:32:40.432Z,2.30
2017-08-14T12:35:07.932Z,1.93
2017-08-14T12:37:35.432Z,2.10
2017-08-14T12:40:02.952Z,1.97
2017-08-14T12:42:31.224Z,2.00
2017-08-14T12:44:58.750Z,1.83
2017-08-14T12:47:26.252Z,2.03
2017-08-14T12:49:54.555Z,2.13
2017-08-14T12:52:22.067Z,1.93
2017-08-14T12:54:49.571Z,2.20
2017-08-14T12:57:17.099Z,2.10
2017-08-14T12:59:45.367Z,1.73
2017-08-14T13:02:12.887Z,2.17
2017-08-14T13:04:40.382Z,2.00
2017-08-14T13:07:07.898Z,2.00
2017-08-14T13:09:35.398Z,1.73
2017-08-14T13:12:02.930Z,1.97
2017-08-14T13:14:30.432Z,2.10
2017-08-14T13:16:57.926Z,2.10
2017-08-14T13:19:25.452Z,1.60
2017-08-14T13:21:52.950Z,1.83
2017-08-14T13:24:20.462Z,1.87
2017-08-14T13:26:47.964Z,2.13
2017-08-14T13:29:15.810Z,2.10
2017-08-14T13:31:43.307Z,2.30
2017-08-14T13:34:10.802Z,1.90
2017-08-14T13:36:39.082Z,2.10
2017-08-14T13:39:07.343Z,2.50
2017-08-14T13:41:34.866Z,1.90
2017-08-14T13:44:02.366Z,2.00
2017-08-14T13:46:30.662Z,2.10
2017-08-14T13:48:58.167Z,2.10
2017-08-14T13:51:25.682Z,2.23
2017-08-14T13:53:53.207Z,2.47
2017-08-14T13:56:20.708Z,2.13
2017-08-14T13:58:48.227Z,2.20
2017-08-14T14:01:16.490Z,2.03
2017-08-14T14:03:44.298Z,1.93
2017-08-14T14:06:11.802Z,2.20
2017-08-14T14:08:39.311Z,2.20
2017-08-14T14:11:06.831Z,2.70
2017-08-14T14:13:34.348Z,1.90
2017-08-14T14:16:01.872Z,2.17
2017-08-14T14:18:30.146Z,1.90
2017-08-14T14:20:58.756Z,2.10
2017-08-14T14:23:26.255Z,1.83
2017-08-14T14:25:53.756Z,2.30
2017-08-14T14:28:21.287Z,2.10
2017-08-14T14:30:48.811Z,2.03
2017-08-14T14:33:16.345Z,2.30
2017-08-14T14:35:43.846Z,2.00
2017-08-14T14:38:11.371Z,2.20
2017-08-14T14:40:38.871Z,2.10
2017-08-14T14:43:06.380Z,1.93
2017-08-14T14:45:33.894Z,2.00
2017-08-14T14:48:01.399Z,2.30
2017-08-14T14:50:28.937Z,1.90
2017-08-14T14:52:56.447Z,1.80
2017-08-14T14:55:24.269Z,2.43
2017-08-14T14:57:51.769Z,2.50
2017-08-14T15:00:19.278Z,2.10
2017-08-14T15:02:46.798Z,1.83
2017-08-14T15:05:14.290Z,1.70
2017-08-14T15:07:42.580Z,2.43
2017-08-14T15:10:10.087Z,2.10
2017-08-14T15:12:37.911Z,2.03
2017-08-14T15:15:05.406Z,2.10
2017-08-14T15:17:32.906Z,2.20
2017-08-14T15:20:01.199Z,1.60
2017-08-14T15:22:28.698Z,2.07
2017-08-14T15:24:56.211Z,1.90
2017-08-14T15:27:23.712Z,1.83
2017-08-14T15:29:51.240Z,1.73
2017-08-14T15:32:18.738Z,2.60
2017-08-14T15:34:46.230Z,2.03
2017-08-14T15:37:13.747Z,2.40
2017-08-14T15:39:41.248Z,1.90
2017-08-14T15:42:08.762Z,2.00
2017-08-14T15:44:36.271Z,2.10
2017-08-14T15:47:03.799Z,2.17
2017-08-14T15:49:31.295Z,2.00
2017-08-14T15:51:58.790Z,1.80
2017-08-14T15:54:26.310Z,1.90
2017-08-14T15:56:53.811Z,2.10
2017-08-14T15:59:21.326Z,1.67
2017-08-14T16:01:48.823Z,2.70
2017-08-14T16:04:16.576Z,2.10
2017-08-14T16:06:44.084Z,1.80
2017-08-14T16:09:12.359Z,2.40
2017-08-14T16:11:40.648Z,1.90
2017-08-14T16:14:08.152Z,2.23
2017-08-14T16:16:35.672Z,2.10
2017-08-14T16:19:03.180Z,2.10
2017-08-14T16:21:30.690Z,2.10
2017-08-14T16:23:58.201Z,1.90
2017-08-14T16:26:25.716Z,1.90
2017-08-14T16:28:53.211Z,2.20
2017-08-14T16:31:20.736Z,1.77
2017-08-14T16:33:48.238Z,1.97
2017-08-14T16:36:16.043Z,2.07
2017-08-14T16:38:43.547Z,2.60
2017-08-14T16:41:11.055Z,1.60
2017-08-14T16:43:38.570Z,2.20
2017-08-14T16:46:06.077Z,1.63
2017-08-14T16:48:33.603Z,2.60
2017-08-14T16:51:01.880Z,2.13
2017-08-14T16:53:30.191Z,2.03
2017-08-14T16:55:57.687Z,2.40
2017-08-14T16:58:25.436Z,2.70
2017-08-14T17:00:53.003Z,2.30
2017-08-14T17:03:20.534Z,2.10
2017-08-14T17:05:48.064Z,1.70
2017-08-14T17:08:16.349Z,2.10
2017-08-14T17:10:43.888Z,1.90
2017-08-14T17:13:12.175Z,1.83
2017-08-14T17:15:40.464Z,2.23
2017-08-14T17:18:08.731Z,2.13
2017-08-14T17:20:37.023Z,2.30
2017-08-14T17:23:04.531Z,2.20
2017-08-14T17:25:32.026Z,2.00
2017-08-14T17:28:00.315Z,1.87
2017-08-14T17:30:27.819Z,2.30
2017-08-14T17:32:55.343Z,2.17
2017-08-14T17:35:22.847Z,2.00
2017-08-14T17:37:50.368Z,1.97
2017-08-14T17:40:17.873Z,2.10
2017-08-14T17:42:45.388Z,2.40
2017-08-14T17:45:12.910Z,2.27
2017-08-14T17:47:41.180Z,2.10
2017-08-14T17:50:09.463Z,2.23
2017-08-14T17:52:37.738Z,2.30
2017-08-14T17:55:06.026Z,2.17
2017-08-14T17:57:33.530Z,2.50
2017-08-14T18:00:01.031Z,2.00
2017-08-14T18:02:29.310Z,2.27
2017-08-14T18:04:57.583Z,2.57
2017-08-14T18:07:25.098Z,3.30
2017-08-14T18:09:52.613Z,2.33
2017-08-14T18:12:20.127Z,2.10
2017-08-14T18:14:47.628Z,2.50
2017-08-14T18:17:15.147Z,2.50
2017-08-14T18:19:42.650Z,2.23
2017-08-14T18:22:10.157Z,2.23
2017-08-14T18:24:37.756Z,2.33
2017-08-14T18:27:05.275Z,2.47
2017-08-14T18:29:32.794Z,2.20
2017-08-14T18:32:00.302Z,2.30
2017-08-14T18:34:28.047Z,2.63
2017-08-14T18:36:56.564Z,2.30
2017-08-14T18:39:24.071Z,2.10
2017-08-14T18:41:51.586Z,2.63
2017-08-14T18:44:19.087Z,2.20
2017-08-14T18:46:46.608Z,3.00
2017-08-14T18:49:14.106Z,2.70
2017-08-14T18:51:41.623Z,2.67
2017-08-14T18:54:09.122Z,3.10
2017-08-14T18:56:36.963Z,2.60
2017-08-14T18:59:04.471Z,2.10
2017-08-14T19:01:31.966Z,2.57
2017-08-14T19:03:59.518Z,2.50
2017-08-14T19:06:27.068Z,2.57
2017-08-14T19:08:57.178Z,3.03
2017-08-14T19:11:22.913Z,2.70
2017-08-14T19:13:51.207Z,3.10
2017-08-14T19:16:18.729Z,2.50
2017-08-14T19:18:46.273Z,3.00
2017-08-14T19:21:13.796Z,2.90
2017-08-14T19:23:41.304Z,2.93
2017-08-14T19:26:08.832Z,3.00
2017-08-14T19:28:36.330Z,2.90
2017-08-14T19:31:04.183Z,3.17
2017-08-14T19:33:31.679Z,2.23
2017-08-14T19:35:59.199Z,3.00
2017-08-14T19:38:26.695Z,3.03
2017-08-14T19:40:54.212Z,3.20
2017-08-14T19:43:21.711Z,2.70
2017-08-14T19:45:49.207Z,2.80
2017-08-14T19:48:16.731Z,3.00
2017-08-14T19:50:44.240Z,2.90
2017-08-14T19:53:11.755Z,2.80
2017-08-14T19:55:39.255Z,3.33
2017-08-14T19:58:06.775Z,3.47
2017-08-14T20:00:34.280Z,3.73
2017-08-14T20:03:02.088Z,3.20
2017-08-14T20:05:29.600Z,3.10
2017-08-14T20:07:57.094Z,3.50
2017-08-14T20:10:24.611Z,3.27
2017-08-14T20:12:52.104Z,3.23
2017-08-14T20:15:19.647Z,3.00
2017-08-14T20:17:47.143Z,2.87
2017-08-14T20:20:14.659Z,3.07
2017-08-14T20:22:42.926Z,2.67
2017-08-14T20:25:10.424Z,3.00
2017-08-14T20:27:37.943Z,2.90
2017-08-14T20:30:05.448Z,2.97
2017-08-14T20:32:32.959Z,2.70
2017-08-14T20:35:00.476Z,2.90
2017-08-14T20:37:27.999Z,2.67
2017-08-14T20:39:56.266Z,2.90
2017-08-14T20:42:24.539Z,3.00
2017-08-14T20:44:52.823Z,3.03
2017-08-14T20:47:21.099Z,2.83
2017-08-14T20:49:49.383Z,2.77
2017-08-14T20:52:16.882Z,3.03
2017-08-14T20:54:44.394Z,3.40
2017-08-14T20:57:12.659Z,3.07
2017-08-14T20:59:40.178Z,2.90
2017-08-14T21:02:07.670Z,2.97
2017-08-14T21:04:35.168Z,3.00
2017-08-14T21:07:02.700Z,3.70
2017-08-14T21:09:30.976Z,3.17
2017-08-14T21:11:59.267Z,3.17
2017-08-14T21:14:26.771Z,3.20
2017-08-14T21:16:54.319Z,3.27
2017-08-14T21:19:21.827Z,2.53
2017-08-14T21:21:50.114Z,3.60
2017-08-14T21:24:17.636Z,3.40
2017-08-14T21:26:45.149Z,3.20
2017-08-14T21:29:12.675Z,3.70
2017-08-14T21:31:40.198Z,3.80
2017-08-14T21:34:07.712Z,3.20
2017-08-14T21:36:35.235Z,2.93
2017-08-14T21:39:02.746Z,3.10
2017-08-14T21:41:30.272Z,3.03
2017-08-14T21:43:58.546Z,3.27
2017-08-14T21:46:26.830Z,3.00
2017-08-14T21:48:54.334Z,3.07
2017-08-14T21:51:21.847Z,3.17
2017-08-14T21:53:49.346Z,3.80
2017-08-14T21:56:16.862Z,5.40
2017-08-14T21:58:45.130Z,5.00
2017-08-14T22:01:12.651Z,3.90
2017-08-14T22:03:40.147Z,3.70
2017-08-14T22:06:08.415Z,3.67
2017-08-14T22:08:35.935Z,3.60
2017-08-14T22:11:03.430Z,3.50
2017-08-14T22:13:30.956Z,3.00
2017-08-14T22:15:58.458Z,3.00
2017-08-14T22:18:26.747Z,3.20
2017-08-14T22:20:54.247Z,3.37
2017-08-14T22:23:21.752Z,3.50
2017-08-14T22:25:50.030Z,3.10
2017-08-14T22:28:18.289Z,3.37
2017-08-14T22:30:46.571Z,3.10
2017-08-14T22:33:14.071Z,3.50
2017-08-14T22:35:41.591Z,3.17
2017-08-14T22:38:09.095Z,3.20
2017-08-14T22:40:36.594Z,3.50
2017-08-14T22:43:04.114Z,3.70
2017-08-14T22:45:31.607Z,3.60
2017-08-14T22:47:59.115Z,3.57
2017-08-14T22:50:26.612Z,3.43
2017-08-14T22:52:54.423Z,3.77
2017-08-14T22:55:21.923Z,3.83
2017-08-14T22:57:49.421Z,3.83
2017-08-14T23:00:16.947Z,4.03
2017-08-14T23:02:44.447Z,3.50
2017-08-14T23:05:11.968Z,4.30
2017-08-14T23:07:39.471Z,4.63
2017-08-14T23:10:07.014Z,3.60
2017-08-14T23:12:35.278Z,4.40
2017-08-14T23:15:03.543Z,4.07
2017-08-14T23:17:31.058Z,3.90
2017-08-14T23:19:58.559Z,4.37
2017-08-14T23:22:26.107Z,4.40
2017-08-14T23:24:53.615Z,3.67
2017-08-14T23:27:21.126Z,4.40
2017-08-14T23:29:48.651Z,4.00
2017-08-14T23:32:16.151Z,3.17
2017-08-14T23:34:43.968Z,3.70
2017-08-14T23:37:11.469Z,4.23
2017-08-14T23:39:38.970Z,4.20
2017-08-14T23:42:06.491Z,4.20
2017-08-14T23:44:33.992Z,4.30
2017-08-14T23:47:01.739Z,5.67
2017-08-14T23:49:29.244Z,6.20
2017-08-14T23:51:56.753Z,4.60
2017-08-14T23:54:24.293Z,5.27
2017-08-14T23:56:51.803Z,5.10
2017-08-14T23:59:19.333Z,5.20
